Terminal Aerodrome Forecast
Issued by NWS Sterling, VA

Home | Current Version | Previous Version | Text Only | Print | Product List | Glossary On
Versions: 1 2 3 4 5 6 7 8 9 10 11 12 13 14 15 16 17 18 19 20 21 22 23
000
FTUS41 KLWX 232336
TAFBWI
TAF
KBWI 232336Z 2400/2506 15007KT P6SM BKN150
     FM240500 VRB03KT P6SM BKN200
     FM241300 10007KT 6SM -RA OVC100
     FM241600 11011G19KT 5SM RA OVC025
     FM242000 10010G18KT 3SM RA OVC015
     FM242300 09009KT 3SM RA OVC008
     FM250400 08010KT 4SM -RA OVC008=

USA.gov is the U.S. government's official web portal to all federal, state and local government web resources and services.